Time;durP1;ratioP1;P1;durP2;ratioP2;P2;SDS_P1;SDS_P2;PMS_P1;PMS_P2;Temp;Humidity;BMP_temperature;BMP_pressure;BME280_temperature;BME280_humidity;BME280_pressure;Samples;Min_cycle;Max_cycle;Signal;HPM_P1;HPM_P2
2022/11/25 00:01:43;;;;;;;10.67;2.70;;;13.10;99.90;;;;;;5006666;28;20193;-30
2022/11/25 00:04:13;;;;;;;13.13;2.33;;;13.10;99.90;;;;;;5004820;28;20692;-30
2022/11/25 00:06:42;;;;;;;15.13;2.83;;;13.20;99.90;;;;;;5006754;28;20563;-30
2022/11/25 00:09:12;;;;;;;14.37;2.87;;;13.10;99.90;;;;;;5006704;28;20202;-30
2022/11/25 00:11:46;;;;;;;7.63;2.37;;;13.10;99.90;;;;;;5006401;28;20272;-30
2022/11/25 00:14:14;;;;;;;8.37;2.30;;;13.20;99.90;;;;;;5005484;28;20205;-30
2022/11/25 00:16:43;;;;;;;11.03;2.73;;;13.20;99.90;;;;;;5006732;28;20721;-30
2022/11/25 00:19:14;;;;;;;12.17;2.80;;;13.20;99.90;;;;;;5006866;28;20758;-30
2022/11/25 00:21:50;;;;;;;11.93;2.80;;;13.20;99.90;;;;;;5006715;28;20213;-30
2022/11/25 00:24:17;;;;;;;15.13;2.90;;;13.20;99.90;;;;;;5006678;28;20669;-30
2022/11/25 00:26:46;;;;;;;10.90;2.60;;;13.20;99.90;;;;;;5006257;28;20215;-30
2022/11/25 00:29:17;;;;;;;7.87;2.57;;;13.30;99.90;;;;;;5006494;28;20218;-30
2022/11/25 00:31:46;;;;;;;15.60;3.03;;;13.30;99.90;;;;;;5005025;28;20599;-30
2022/11/25 00:34:13;;;;;;;13.50;2.73;;;13.30;99.90;;;;;;5005921;28;20209;-31
2022/11/25 00:36:41;;;;;;;10.23;2.30;;;13.30;99.90;;;;;;5006252;28;20212;-30
2022/11/25 00:39:18;;;;;;;15.50;3.40;;;13.30;99.90;;;;;;5006562;28;20256;-30
2022/11/25 00:44:34;;;;;;;10.73;3.00;;;13.30;99.90;;;;;;5005352;28;20243;-31
2022/11/25 00:47:03;;;;;;;13.43;3.57;;;13.30;99.90;;;;;;5006217;28;20217;-30
2022/11/25 00:49:36;;;;;;;12.00;3.10;;;13.30;99.90;;;;;;5006586;28;20647;-30
2022/11/25 00:52:04;;;;;;;12.73;2.97;;;13.30;99.90;;;;;;5006382;28;20708;-30
2022/11/25 00:54:32;;;;;;;10.17;2.70;;;13.30;99.90;;;;;;5006295;28;20233;-30
2022/11/25 00:57:03;;;;;;;12.07;3.03;;;13.30;99.90;;;;;;5006173;28;20304;-30
2022/11/25 00:59:30;;;;;;;12.13;3.03;;;13.30;99.90;;;;;;5006636;28;20202;-30
2022/11/25 01:01:58;;;;;;;11.67;2.97;;;13.30;99.90;;;;;;5005992;28;20256;-30
2022/11/25 01:04:28;;;;;;;10.23;2.43;;;13.30;99.90;;;;;;5006205;28;20201;-30
2022/11/25 01:06:58;;;;;;;14.17;2.83;;;13.30;99.90;;;;;;5006238;28;20206;-30
2022/11/25 01:09:27;;;;;;;10.73;2.93;;;13.30;99.90;;;;;;5005053;28;20210;-30
2022/11/25 01:11:56;;;;;;;10.73;2.47;;;13.30;99.90;;;;;;5005851;28;20225;-30
2022/11/25 01:14:26;;;;;;;15.07;2.90;;;13.30;99.90;;;;;;5006993;28;20328;-30
2022/11/25 01:16:53;;;;;;;12.50;2.77;;;13.30;99.90;;;;;;5009476;28;20304;-30
2022/11/25 01:19:23;;;;;;;19.57;2.60;;;13.30;99.90;;;;;;5009415;28;20230;-31
2022/11/25 01:21:52;;;;;;;6.27;1.60;;;13.40;99.90;;;;;;5009592;28;20201;-30
2022/11/25 01:24:20;;;;;;;6.43;1.57;;;13.40;99.90;;;;;;5009369;28;20218;-30
2022/11/25 01:26:50;;;;;;;4.40;1.00;;;13.40;99.90;;;;;;5009521;28;20204;-29
2022/11/25 01:29:18;;;;;;;3.10;1.00;;;13.30;99.90;;;;;;5009638;28;20293;-29
2022/11/25 01:31:48;;;;;;;3.97;0.90;;;13.20;99.90;;;;;;5009075;28;20225;-29
2022/11/25 01:34:22;;;;;;;5.10;0.80;;;13.20;99.90;;;;;;5009682;28;20736;-29
2022/11/25 01:36:49;;;;;;;3.40;0.70;;;13.10;99.90;;;;;;5009491;28;20301;-29
2022/11/25 01:39:19;;;;;;;3.60;0.87;;;13.00;99.90;;;;;;5009374;28;20202;-29
2022/11/25 01:41:49;;;;;;;4.43;1.00;;;13.00;99.90;;;;;;5009374;28;20680;-29
2022/11/25 01:44:26;;;;;;;3.87;0.80;;;12.90;99.90;;;;;;5009586;28;20268;-29
2022/11/25 01:47:00;;;;;;;1.90;0.70;;;12.90;99.90;;;;;;5009091;28;20267;-29
2022/11/25 01:49:30;;;;;;;1.53;0.57;;;12.80;99.90;;;;;;5007471;28;20593;-30
2022/11/25 01:52:16;;;;;;;3.30;0.80;;;12.80;99.90;;;;;;5009228;28;20226;-29
2022/11/25 01:55:13;;;;;;;2.40;0.73;;;12.70;99.90;;;;;;5009110;28;20209;-29
2022/11/25 01:57:46;;;;;;;3.40;0.80;;;12.70;99.90;;;;;;5005318;28;20217;-29
2022/11/25 02:00:16;;;;;;;3.50;0.90;;;12.70;99.90;;;;;;4989500;28;20202;-30
2022/11/25 02:02:45;;;;;;;1.93;0.60;;;12.60;99.90;;;;;;5014996;28;20308;-30
2022/11/25 02:05:16;;;;;;;2.20;0.83;;;12.60;99.90;;;;;;5008178;28;20722;-29
2022/11/25 02:07:48;;;;;;;1.93;0.50;;;12.50;99.90;;;;;;5009341;28;20565;-29
2022/11/25 02:10:20;;;;;;;2.93;0.70;;;12.50;99.90;;;;;;5023943;28;20293;-30
2022/11/25 02:12:48;;;;;;;2.67;0.80;;;12.50;99.90;;;;;;5008336;28;20303;-30
2022/11/25 02:15:18;;;;;;;1.90;0.60;;;12.50;99.90;;;;;;5017767;28;20210;-30
2022/11/25 02:17:48;;;;;;;2.07;0.60;;;12.40;99.90;;;;;;5015868;28;20285;-30
2022/11/25 02:20:18;;;;;;;2.47;0.60;;;12.40;99.90;;;;;;5008350;28;20210;-30
2022/11/25 02:23:01;;;;;;;2.80;0.60;;;12.40;99.90;;;;;;5008393;28;20225;-30
2022/11/25 02:25:37;;;;;;;1.47;0.60;;;12.40;99.90;;;;;;5007701;28;20268;-30
2022/11/25 02:28:10;;;;;;;3.13;0.70;;;12.30;99.90;;;;;;5008169;28;20301;-29
2022/11/25 02:30:38;;;;;;;1.83;0.60;;;12.30;99.90;;;;;;4988653;28;20203;-29
2022/11/25 02:33:08;;;;;;;2.23;0.47;;;12.30;99.90;;;;;;4989093;28;20709;-30
2022/11/25 02:35:41;;;;;;;2.17;0.60;;;12.30;99.90;;;;;;4988638;28;20790;-29
2022/11/25 02:38:18;;;;;;;3.53;0.70;;;12.20;99.90;;;;;;4987420;28;20218;-30
2022/11/25 02:40:54;;;;;;;2.23;0.50;;;12.20;99.90;;;;;;4988914;28;20648;-30
2022/11/25 02:43:27;;;;;;;1.33;0.60;;;12.20;99.90;;;;;;4988323;28;20654;-30
2022/11/25 02:46:02;;;;;;;0.97;0.47;;;12.20;99.90;;;;;;4988539;28;20258;-30
2022/11/25 02:48:32;;;;;;;2.20;0.53;;;12.20;99.90;;;;;;4988778;28;20237;-30
2022/11/25 02:51:26;;;;;;;3.73;1.00;;;12.10;99.90;;;;;;4988788;28;20273;-30
2022/11/25 02:53:55;;;;;;;1.80;0.70;;;12.10;99.90;;;;;;4988761;28;20264;-30
2022/11/25 02:56:29;;;;;;;2.27;0.90;;;12.10;99.90;;;;;;4988849;28;20190;-29
2022/11/25 02:58:59;;;;;;;1.87;0.70;;;12.10;99.90;;;;;;5003521;28;20939;-29
2022/11/25 03:01:33;;;;;;;3.60;0.80;;;12.10;99.90;;;;;;4988195;28;20690;-30
2022/11/25 03:04:01;;;;;;;1.33;0.60;;;12.00;99.90;;;;;;5002901;28;20205;-30
2022/11/25 03:06:31;;;;;;;1.07;0.60;;;12.00;99.90;;;;;;4988342;28;20293;-30
2022/11/25 03:08:59;;;;;;;2.20;0.60;;;12.00;99.90;;;;;;4988162;28;20297;-30
2022/11/25 03:14:14;;;;;;;1.13;0.60;;;12.00;99.90;;;;;;4988331;28;20665;-30
2022/11/25 03:16:41;;;;;;;1.87;0.70;;;12.00;99.90;;;;;;4988072;28;20202;-30
2022/11/25 03:19:09;;;;;;;2.77;0.80;;;11.90;99.90;;;;;;4988118;28;20202;-30
2022/11/25 03:21:38;;;;;;;2.20;0.50;;;11.90;99.90;;;;;;4987502;28;20288;-30
2022/11/25 03:24:06;;;;;;;2.20;0.67;;;11.90;99.90;;;;;;4988174;28;20240;-30
2022/11/25 03:26:35;;;;;;;1.60;0.70;;;11.90;99.90;;;;;;4986255;28;20292;-30
2022/11/25 03:29:07;;;;;;;3.93;0.60;;;11.90;99.90;;;;;;4987666;28;20701;-30
2022/11/25 03:31:35;;;;;;;2.10;0.60;;;11.80;99.90;;;;;;4987495;28;20264;-30
2022/11/25 03:34:06;;;;;;;2.73;0.93;;;11.80;99.90;;;;;;4987761;28;20293;-30
2022/11/25 03:36:35;;;;;;;1.93;1.10;;;11.80;99.90;;;;;;4987768;28;20297;-30
2022/11/25 03:39:03;;;;;;;4.47;0.70;;;11.70;99.90;;;;;;4987706;28;20237;-30
2022/11/25 03:41:32;;;;;;;2.77;0.70;;;11.70;99.90;;;;;;5002596;28;20229;-30
2022/11/25 03:43:59;;;;;;;2.63;1.10;;;11.70;99.90;;;;;;4987689;28;20341;-30
2022/11/25 03:46:27;;;;;;;3.20;0.90;;;11.60;99.90;;;;;;4987633;28;20218;-30
2022/11/25 03:48:54;;;;;;;1.93;0.60;;;11.60;99.90;;;;;;4987437;28;20589;-30
2022/11/25 03:51:23;;;;;;;3.40;0.80;;;11.60;99.90;;;;;;4986050;28;20207;-30
2022/11/25 03:53:51;;;;;;;3.60;0.90;;;11.50;99.90;;;;;;4985885;28;20206;-30
2022/11/25 03:56:22;;;;;;;4.03;0.93;;;11.50;99.90;;;;;;4987376;28;20249;-30
2022/11/25 03:58:49;;;;;;;2.30;1.00;;;11.50;99.90;;;;;;4987216;28;20203;-30
2022/11/25 04:01:23;;;;;;;4.03;1.30;;;11.50;99.90;;;;;;4987076;28;20569;-30
2022/11/25 04:03:51;;;;;;;5.07;1.13;;;11.40;99.90;;;;;;4987171;28;20740;-30
2022/11/25 04:06:23;;;;;;;3.70;1.53;;;11.40;99.90;;;;;;4985253;28;20260;-30
2022/11/25 04:08:55;;;;;;;3.60;1.20;;;11.40;99.90;;;;;;4986956;28;20285;-30
2022/11/25 04:12:45;;;;;;;4.20;1.60;;;11.40;99.90;;;;;;4986667;28;20209;-30
2022/11/25 04:14:21;;;;;;;5.90;1.80;;;11.40;99.90;;;;;;4987249;28;20621;-30
2022/11/25 04:16:52;;;;;;;4.63;1.50;;;11.40;99.90;;;;;;4987635;28;20206;-30
2022/11/25 04:19:22;;;;;;;4.97;1.57;;;11.40;99.90;;;;;;4986839;28;20221;-30
2022/11/25 04:21:52;;;;;;;5.40;1.97;;;11.40;99.90;;;;;;4987335;28;20260;-30
2022/11/25 04:24:24;;;;;;;6.23;1.40;;;11.40;99.90;;;;;;4987264;28;20202;-30
2022/11/25 04:26:52;;;;;;;6.87;1.90;;;11.40;99.90;;;;;;4987204;28;20312;-30
2022/11/25 04:29:20;;;;;;;6.50;1.87;;;11.40;99.90;;;;;;4985571;28;20346;-30
2022/11/25 04:31:51;;;;;;;7.77;2.20;;;11.40;99.90;;;;;;5001087;28;20230;-31
2022/11/25 04:34:19;;;;;;;6.23;1.60;;;11.40;99.90;;;;;;4986404;28;20522;-30
2022/11/25 04:36:48;;;;;;;6.87;2.00;;;11.30;99.90;;;;;;4986344;28;20697;-30
2022/11/25 04:39:15;;;;;;;7.07;2.10;;;11.30;99.90;;;;;;4987077;28;20811;-30
2022/11/25 04:41:47;;;;;;;5.83;1.97;;;11.30;99.90;;;;;;4987126;28;20229;-30
2022/11/25 04:44:16;;;;;;;9.73;2.20;;;11.30;99.90;;;;;;4986811;28;20795;-30
2022/11/25 04:46:46;;;;;;;7.23;2.30;;;11.30;99.90;;;;;;4987094;28;20202;-30
2022/11/25 04:49:16;;;;;;;8.30;1.80;;;11.30;99.90;;;;;;4987418;28;20347;-30
2022/11/25 04:51:45;;;;;;;8.00;1.70;;;11.30;99.90;;;;;;4990446;28;20336;-31
2022/11/25 04:54:15;;;;;;;5.60;1.67;;;11.30;99.90;;;;;;4990990;28;20214;-30
2022/11/25 04:56:45;;;;;;;5.50;1.67;;;11.20;99.90;;;;;;4988897;28;20708;-30
2022/11/25 05:02:01;;;;;;;6.53;1.53;;;11.20;99.90;;;;;;4990279;28;20214;-30
2022/11/25 05:04:30;;;;;;;7.47;2.10;;;11.20;99.90;;;;;;4990705;28;20221;-30
2022/11/25 05:06:57;;;;;;;4.90;1.67;;;11.20;99.90;;;;;;4990276;28;20257;-30
2022/11/25 05:09:27;;;;;;;7.20;2.20;;;11.20;99.90;;;;;;4990407;28;20252;-31
2022/11/25 05:11:56;;;;;;;5.80;2.17;;;11.20;99.90;;;;;;4990193;28;20333;-30
2022/11/25 05:14:24;;;;;;;6.63;2.17;;;11.20;99.90;;;;;;4990717;28;20288;-30
2022/11/25 05:16:53;;;;;;;9.23;2.03;;;11.20;99.90;;;;;;4990395;28;20209;-30
2022/11/25 05:19:21;;;;;;;8.33;2.10;;;11.20;99.90;;;;;;4990209;28;20200;-30
2022/11/25 05:21:50;;;;;;;5.00;2.37;;;11.20;99.90;;;;;;4990580;28;20210;-30
2022/11/25 05:24:17;;;;;;;4.97;1.80;;;11.20;99.90;;;;;;4990083;28;20669;-30
2022/11/25 05:26:51;;;;;;;5.00;2.30;;;11.20;99.90;;;;;;4990156;28;20289;-30
2022/11/25 05:29:21;;;;;;;7.50;2.10;;;11.20;99.90;;;;;;4988368;28;20327;-30
2022/11/25 05:31:48;;;;;;;4.67;1.87;;;11.20;99.90;;;;;;4989867;28;20233;-30
2022/11/25 05:34:16;;;;;;;6.27;1.80;;;11.20;99.90;;;;;;4990110;28;20655;-30
2022/11/25 05:36:43;;;;;;;7.60;2.00;;;11.20;99.90;;;;;;4990230;28;20198;-30
2022/11/25 05:39:10;;;;;;;7.87;2.00;;;11.20;99.90;;;;;;4990238;28;20653;-30
2022/11/25 05:41:37;;;;;;;3.90;1.70;;;11.10;99.90;;;;;;4989891;28;20206;-30
2022/11/25 05:44:07;;;;;;;5.13;2.40;;;11.10;99.90;;;;;;4989988;28;20204;-30
2022/11/25 05:46:36;;;;;;;5.07;1.90;;;11.10;99.90;;;;;;4989708;28;20312;-30
2022/11/25 05:49:08;;;;;;;6.53;2.10;;;11.10;99.90;;;;;;4989350;28;20357;-30
2022/11/25 05:51:36;;;;;;;3.97;1.60;;;11.10;99.90;;;;;;4989510;28;20258;-31
2022/11/25 05:54:03;;;;;;;5.20;2.00;;;11.10;99.90;;;;;;4989774;28;20226;-30
2022/11/25 05:56:30;;;;;;;7.00;1.70;;;11.10;99.90;;;;;;4989759;28;20249;-30
2022/11/25 05:59:01;;;;;;;5.53;1.97;;;11.10;99.90;;;;;;4989687;28;20285;-30
2022/11/25 06:01:30;;;;;;;4.33;1.70;;;11.00;99.90;;;;;;4986718;28;20665;-30
2022/11/25 06:04:04;;;;;;;5.73;2.37;;;11.00;99.90;;;;;;4989226;28;20306;-30
2022/11/25 06:06:33;;;;;;;7.80;2.20;;;11.00;99.90;;;;;;4989677;28;20668;-30
2022/11/25 06:09:03;;;;;;;7.93;2.17;;;11.00;99.90;;;;;;4989391;28;20241;-30
2022/11/25 06:11:30;;;;;;;7.07;2.47;;;11.00;99.90;;;;;;4989382;28;20202;-30
2022/11/25 06:13:59;;;;;;;5.57;2.23;;;10.90;99.90;;;;;;4988839;28;20670;-30
2022/11/25 06:16:29;;;;;;;8.03;2.33;;;10.90;99.90;;;;;;4988965;28;20647;-30
2022/11/25 06:18:57;;;;;;;8.97;2.70;;;10.90;99.90;;;;;;4989189;28;20202;-30
2022/11/25 06:21:24;;;;;;;7.23;2.10;;;10.90;99.90;;;;;;4988855;28;20260;-31
2022/11/25 06:23:51;;;;;;;7.23;1.70;;;10.80;99.90;;;;;;4988771;28;20605;-30
2022/11/25 06:26:22;;;;;;;7.27;2.00;;;10.80;99.90;;;;;;4988865;28;20673;-31
2022/11/25 06:28:54;;;;;;;8.00;2.30;;;10.80;99.90;;;;;;4989172;28;20230;-30
2022/11/25 06:31:24;;;;;;;7.00;2.40;;;10.80;99.90;;;;;;4989270;28;20276;-30
2022/11/25 06:33:54;;;;;;;9.47;2.27;;;10.70;99.90;;;;;;4989216;28;20218;-31
2022/11/25 06:36:22;;;;;;;9.47;2.40;;;10.70;99.90;;;;;;4989124;28;20194;-30
2022/11/25 06:38:53;;;;;;;12.63;3.37;;;10.70;99.90;;;;;;4988375;28;20293;-30
2022/11/25 06:41:21;;;;;;;13.80;3.60;;;10.60;99.90;;;;;;5003586;28;20640;-31
2022/11/25 06:43:48;;;;;;;8.83;2.60;;;10.60;99.90;;;;;;4988639;28;20229;-30
2022/11/25 06:46:19;;;;;;;14.03;2.93;;;10.60;99.90;;;;;;4988514;28;20731;-30
2022/11/25 06:48:54;;;;;;;9.17;3.03;;;10.60;99.90;;;;;;4988401;28;20671;-30
2022/11/25 06:51:23;;;;;;;7.50;2.40;;;10.60;99.90;;;;;;4988285;28;20658;-31
2022/11/25 06:53:51;;;;;;;6.40;2.20;;;10.60;99.90;;;;;;4988227;28;20280;-30
2022/11/25 06:56:26;;;;;;;6.23;2.10;;;10.60;99.90;;;;;;4988487;28;20622;-30
2022/11/25 06:58:56;;;;;;;7.30;2.63;;;10.60;99.90;;;;;;4988425;28;20779;-31
2022/11/25 07:01:27;;;;;;;6.03;2.10;;;10.50;99.90;;;;;;4988180;28;20314;-30
2022/11/25 07:04:00;;;;;;;6.33;2.00;;;10.50;99.90;;;;;;4988035;28;20590;-31
2022/11/25 07:06:28;;;;;;;8.13;2.23;;;10.50;99.90;;;;;;4988711;28;20713;-30
2022/11/25 07:08:56;;;;;;;8.27;2.43;;;10.50;99.90;;;;;;4988399;28;20529;-30
2022/11/25 07:11:37;;;;;;;11.80;3.33;;;10.50;99.90;;;;;;4988217;28;20238;-30
2022/11/25 07:14:10;;;;;;;7.60;2.60;;;10.50;99.90;;;;;;4987401;28;20317;-30
2022/11/25 07:16:39;;;;;;;7.63;2.40;;;10.50;99.90;;;;;;4987277;28;20202;-30
2022/11/25 07:19:14;;;;;;;7.90;2.70;;;10.50;99.90;;;;;;4987562;28;20322;-31
2022/11/25 07:21:44;;;;;;;7.73;2.60;;;10.50;99.90;;;;;;4987271;28;20293;-31
2022/11/25 07:24:14;;;;;;;8.67;2.90;;;10.50;99.90;;;;;;5002034;28;20209;-30
2022/11/25 07:26:44;;;;;;;7.23;2.50;;;10.50;99.90;;;;;;4987103;28;20206;-30
2022/11/25 07:29:14;;;;;;;7.80;2.50;;;10.40;99.90;;;;;;4987027;28;20241;-30
2022/11/25 07:32:06;;;;;;;9.70;2.80;;;10.40;99.90;;;;;;4987458;28;20205;-30
2022/11/25 07:34:39;;;;;;;8.17;2.43;;;10.40;99.90;;;;;;5001270;28;20210;-30
2022/11/25 07:37:11;;;;;;;8.03;3.07;;;10.40;99.90;;;;;;4986732;28;20632;-30
2022/11/25 07:39:42;;;;;;;6.77;2.50;;;10.40;99.90;;;;;;4986965;28;20198;-30
2022/11/25 07:42:14;;;;;;;11.43;2.77;;;10.40;99.90;;;;;;4986851;28;20221;-30
2022/11/25 07:44:41;;;;;;;6.30;2.93;;;10.40;99.90;;;;;;4987071;28;20236;-30
2022/11/25 07:47:08;;;;;;;9.87;2.90;;;10.40;99.90;;;;;;4987056;28;20252;-31
2022/11/25 07:49:37;;;;;;;6.93;2.30;;;10.50;99.90;;;;;;4986531;28;20324;-31
2022/11/25 07:52:08;;;;;;;7.87;2.77;;;10.50;99.90;;;;;;4986928;28;20191;-30
2022/11/25 07:54:35;;;;;;;10.27;3.10;;;10.50;99.90;;;;;;4986446;28;20289;-30
2022/11/25 07:57:02;;;;;;;7.57;2.70;;;10.50;99.90;;;;;;4987269;28;20293;-32
2022/11/25 07:59:34;;;;;;;11.50;2.70;;;10.50;99.90;;;;;;5000838;28;20198;-33
2022/11/25 08:02:05;;;;;;;9.83;2.73;;;10.50;99.90;;;;;;4985268;28;20198;-32
2022/11/25 08:04:32;;;;;;;7.87;2.87;;;10.50;99.90;;;;;;4986662;28;20589;-32
2022/11/25 08:07:02;;;;;;;10.93;3.27;;;10.50;99.90;;;;;;4986809;28;20206;-32
2022/11/25 08:09:31;;;;;;;13.97;3.23;;;10.50;99.90;;;;;;4986866;28;20195;-32
2022/11/25 08:11:58;;;;;;;9.57;3.00;;;10.50;99.90;;;;;;4987398;28;20269;-32
2022/11/25 08:14:25;;;;;;;8.37;2.87;;;10.50;99.90;;;;;;4986903;28;20709;-32
2022/11/25 08:16:53;;;;;;;10.53;3.43;;;10.50;99.90;;;;;;4987230;28;20253;-32
2022/11/25 08:19:20;;;;;;;12.43;3.47;;;10.60;99.90;;;;;;4987038;28;20213;-32
2022/11/25 08:21:51;;;;;;;16.93;4.13;;;10.60;99.90;;;;;;4986719;28;20198;-32
2022/11/25 08:24:20;;;;;;;10.80;3.33;;;10.60;99.90;;;;;;4986333;28;20312;-32
2022/11/25 08:26:48;;;;;;;14.93;4.03;;;10.60;99.90;;;;;;4986903;28;20342;-33
2022/11/25 08:29:17;;;;;;;13.27;3.57;;;10.60;99.90;;;;;;4986918;28;20206;-33
2022/11/25 08:31:45;;;;;;;14.50;4.07;;;10.60;99.90;;;;;;4987091;28;20233;-32
2022/11/25 08:34:22;;;;;;;15.37;3.97;;;10.60;99.90;;;;;;4986736;28;20226;-33
2022/11/25 08:36:50;;;;;;;10.57;3.60;;;10.70;99.90;;;;;;4986629;28;20190;-35
2022/11/25 08:39:19;;;;;;;15.20;4.03;;;10.70;99.90;;;;;;4985248;28;20237;-34
2022/11/25 08:42:07;;;;;;;9.57;3.60;;;10.60;99.90;;;;;;4986356;28;20214;-33
2022/11/25 08:44:34;;;;;;;15.17;4.30;;;10.70;99.90;;;;;;4986286;28;20755;-32
2022/11/25 08:47:02;;;;;;;13.07;3.50;;;10.70;99.90;;;;;;4986681;28;20285;-32
2022/11/25 08:49:31;;;;;;;13.00;3.70;;;10.70;99.90;;;;;;4986187;28;20245;-32
2022/11/25 08:52:07;;;;;;;13.23;3.47;;;10.70;99.90;;;;;;4986190;28;20213;-31
2022/11/25 08:54:37;;;;;;;16.53;4.13;;;10.70;99.90;;;;;;4986417;28;20222;-31
2022/11/25 08:57:04;;;;;;;14.70;3.87;;;10.80;99.90;;;;;;4986186;28;20297;-30
2022/11/25 08:59:36;;;;;;;12.17;3.37;;;10.80;99.90;;;;;;4986388;28;20206;-30
2022/11/25 09:02:05;;;;;;;7.97;3.20;;;10.80;99.90;;;;;;4985997;28;20212;-30
2022/11/25 09:04:32;;;;;;;16.30;3.83;;;10.90;99.90;;;;;;4985989;28;20198;-30
2022/11/25 09:07:03;;;;;;;14.37;3.73;;;10.90;99.90;;;;;;4986054;28;20234;-30
2022/11/25 09:09:33;;;;;;;16.07;3.80;;;10.90;99.90;;;;;;5001151;28;20273;-30
2022/11/25 09:12:01;;;;;;;11.40;3.37;;;11.00;99.90;;;;;;4969390;28;20202;-30
2022/11/25 09:14:31;;;;;;;13.13;3.93;;;11.00;99.90;;;;;;4985817;28;20713;-31
2022/11/25 09:17:00;;;;;;;15.57;3.50;;;11.10;99.90;;;;;;5000560;28;20287;-30
2022/11/25 09:19:28;;;;;;;14.90;3.30;;;11.10;99.90;;;;;;4986670;28;20297;-30
2022/11/25 09:21:55;;;;;;;11.10;3.43;;;11.10;99.90;;;;;;4986833;28;20206;-30
2022/11/25 09:24:25;;;;;;;12.80;3.20;;;11.10;99.90;;;;;;5000984;28;20568;-35
2022/11/25 09:26:52;;;;;;;10.13;3.13;;;11.20;99.90;;;;;;4986491;28;20289;-30
2022/11/25 09:29:21;;;;;;;12.57;3.53;;;11.20;99.90;;;;;;4986797;28;20277;-30
2022/11/25 09:31:51;;;;;;;12.23;3.27;;;11.20;99.90;;;;;;4984902;28;20716;-30
2022/11/25 09:34:23;;;;;;;11.07;3.23;;;11.20;99.90;;;;;;4985981;28;20314;-30
2022/11/25 09:36:53;;;;;;;9.90;3.50;;;11.20;99.90;;;;;;4989462;28;20293;-30
2022/11/25 09:39:28;;;;;;;12.20;4.03;;;11.30;99.90;;;;;;4972185;28;20257;-31
2022/11/25 09:48:19;;;;;;;7.80;2.33;;;11.30;99.90;;;;;;4989331;28;20233;-31
2022/11/25 09:51:00;;;;;;;7.80;2.13;;;11.30;99.90;;;;;;4988131;28;20638;-30
2022/11/25 09:53:57;;;;;;;9.63;2.50;;;11.30;99.90;;;;;;4989393;28;20210;-30
2022/11/25 09:56:24;;;;;;;10.23;2.40;;;11.40;99.90;;;;;;4988965;28;20202;-30
2022/11/25 09:59:17;;;;;;;8.50;2.13;;;11.40;99.90;;;;;;4989174;28;20659;-30
2022/11/25 10:02:20;;;;;;;7.67;2.27;;;11.40;99.90;;;;;;4989578;28;20288;-30
2022/11/25 10:04:54;;;;;;;6.43;1.73;;;11.50;99.90;;;;;;4985901;28;20710;-30
2022/11/25 10:07:28;;;;;;;6.00;1.83;;;11.50;99.90;;;;;;4989528;28;20210;-30
2022/11/25 10:09:59;;;;;;;7.80;1.63;;;11.50;99.90;;;;;;4989074;28;20233;-30
2022/11/25 10:12:33;;;;;;;8.23;1.50;;;11.50;99.90;;;;;;4989888;28;20268;-30
2022/11/25 10:15:13;;;;;;;5.57;1.70;;;11.50;99.90;;;;;;4989241;28;20610;-30
2022/11/25 10:17:43;;;;;;;7.37;1.80;;;11.60;99.90;;;;;;4989013;28;20195;-30
2022/11/25 10:20:19;;;;;;;7.83;1.87;;;11.60;99.90;;;;;;4989784;28;20221;-30
2022/11/25 10:22:54;;;;;;;6.97;1.97;;;11.60;99.90;;;;;;4989111;28;20205;-30
2022/11/25 10:25:28;;;;;;;4.83;1.77;;;11.70;99.90;;;;;;4988788;28;20275;-30
2022/11/25 10:28:16;;;;;;;5.47;1.50;;;11.70;99.90;;;;;;4988720;28;20233;-31
2022/11/25 10:31:03;;;;;;;7.70;1.80;;;11.80;99.90;;;;;;4987691;28;20704;-30
2022/11/25 10:33:52;;;;;;;5.97;1.60;;;11.80;99.90;;;;;;4988557;28;20237;-30
2022/11/25 10:36:25;;;;;;;6.30;1.47;;;11.80;99.90;;;;;;4988644;28;20246;-30
2022/11/25 10:39:12;;;;;;;2.43;1.27;;;11.90;99.90;;;;;;4988496;28;20231;-30
2022/11/25 10:41:45;;;;;;;6.60;1.30;;;11.90;99.90;;;;;;4988193;28;20685;-32
2022/11/25 10:44:23;;;;;;;3.60;1.30;;;11.90;99.90;;;;;;4988471;28;20292;-30
2022/11/25 10:47:16;;;;;;;6.97;1.37;;;11.90;99.90;;;;;;4987632;28;20203;-30
2022/11/25 10:50:07;;;;;;;5.47;1.20;;;12.00;99.90;;;;;;4987883;28;20253;-30
2022/11/25 10:52:54;;;;;;;6.63;1.43;;;12.00;99.90;;;;;;4988578;28;20233;-30
2022/11/25 10:55:25;;;;;;;5.07;1.30;;;12.00;99.90;;;;;;4988046;28;20782;-30
2022/11/25 10:57:53;;;;;;;6.43;1.40;;;12.00;99.90;;;;;;4988392;28;20198;-30
2022/11/25 11:00:33;;;;;;;2.83;0.93;;;12.00;99.90;;;;;;4987870;28;20720;-30
2022/11/25 11:03:20;;;;;;;5.37;1.20;;;12.00;99.90;;;;;;4988013;28;20202;-30
2022/11/25 11:05:54;;;;;;;4.87;1.27;;;12.10;99.90;;;;;;4986466;28;20213;-34
2022/11/25 11:08:37;;;;;;;2.93;0.83;;;12.10;99.90;;;;;;4988180;28;20285;-32
2022/11/25 11:11:16;;;;;;;3.47;1.00;;;12.20;99.90;;;;;;4988227;28;20402;-32
2022/11/25 11:13:45;;;;;;;4.93;1.33;;;12.20;99.90;;;;;;4987617;28;20256;-32
2022/11/25 11:16:26;;;;;;;3.77;0.97;;;12.20;99.90;;;;;;4987510;28;20194;-31
2022/11/25 11:18:55;;;;;;;3.93;1.00;;;12.20;99.90;;;;;;4987718;28;20214;-31
2022/11/25 11:21:31;;;;;;;5.70;1.27;;;12.20;99.90;;;;;;4987750;28;20277;-32
2022/11/25 11:24:03;;;;;;;5.30;1.30;;;12.20;99.90;;;;;;4988024;28;20639;-32
2022/11/25 11:26:35;;;;;;;7.67;1.40;;;12.20;99.90;;;;;;4987996;28;20289;-32
2022/11/25 11:29:14;;;;;;;9.23;1.67;;;12.30;99.90;;;;;;4987592;28;20249;-32
2022/11/25 11:31:51;;;;;;;4.63;1.70;;;12.30;99.90;;;;;;4987355;28;20234;-32
2022/11/25 11:34:41;;;;;;;4.97;1.50;;;12.30;99.90;;;;;;4987623;28;20300;-32
2022/11/25 11:37:33;;;;;;;8.97;1.67;;;12.30;99.90;;;;;;4986856;28;20705;-32
2022/11/25 11:40:18;;;;;;;6.87;1.90;;;12.30;99.90;;;;;;4987750;28;20237;-33
2022/11/25 11:43:04;;;;;;;3.80;1.40;;;12.30;99.90;;;;;;4987316;28;20198;-32
2022/11/25 11:45:55;;;;;;;7.53;1.80;;;12.30;99.90;;;;;;4987208;28;20198;-32
2022/11/25 11:48:57;;;;;;;9.70;2.10;;;12.40;99.90;;;;;;4987177;28;20242;-32
2022/11/25 11:51:33;;;;;;;6.73;1.90;;;12.40;99.90;;;;;;4985637;28;20224;-32
2022/11/25 11:54:02;;;;;;;8.93;2.20;;;12.40;99.90;;;;;;4987084;28;20230;-33
2022/11/25 11:56:49;;;;;;;7.40;2.00;;;12.50;99.90;;;;;;4987383;28;20206;-32
2022/11/25 11:59:52;;;;;;;9.47;2.20;;;12.50;99.90;;;;;;4986439;28;20730;-32
2022/11/25 12:02:35;;;;;;;5.80;1.70;;;12.50;99.90;;;;;;4985747;28;20582;-30
2022/11/25 12:05:14;;;;;;;6.67;2.03;;;12.50;99.90;;;;;;4985943;28;20252;-30
2022/11/25 12:07:59;;;;;;;10.87;2.57;;;12.50;99.90;;;;;;4986832;28;20217;-31
2022/11/25 12:10:37;;;;;;;13.90;3.00;;;12.50;99.90;;;;;;4986688;28;20293;-30
2022/11/25 12:13:12;;;;;;;7.53;1.80;;;12.50;99.90;;;;;;4986454;28;20276;-30
2022/11/25 12:15:47;;;;;;;8.17;2.23;;;12.50;99.90;;;;;;4986568;28;20226;-30
2022/11/25 12:18:49;;;;;;;7.57;2.10;;;12.50;99.90;;;;;;4986129;28;20206;-30
2022/11/25 12:21:38;;;;;;;9.17;2.27;;;12.60;99.90;;;;;;5001103;28;20280;-30
2022/11/25 12:24:29;;;;;;;17.13;3.10;;;12.60;99.90;;;;;;4986369;28;20673;-30
2022/11/25 12:27:10;;;;;;;11.40;2.93;;;12.50;99.90;;;;;;4986077;28;20248;-30
2022/11/25 12:29:48;;;;;;;9.13;2.17;;;12.60;99.90;;;;;;4986455;28;20218;-30
2022/11/25 12:32:20;;;;;;;8.53;2.27;;;12.50;99.90;;;;;;4986176;28;20202;-30
2022/11/25 12:35:02;;;;;;;11.20;2.53;;;12.60;99.90;;;;;;4986054;28;20280;-30
2022/11/25 12:38:13;;;;;;;10.30;2.33;;;12.60;99.90;;;;;;4986000;28;20606;-30
2022/11/25 12:41:08;;;;;;;8.80;2.30;;;12.70;99.90;;;;;;4975594;28;20678;-30
2022/11/25 12:43:41;;;;;;;13.13;2.60;;;12.70;99.90;;;;;;4985927;28;20244;-30
2022/11/25 12:46:23;;;;;;;10.47;2.60;;;12.70;99.90;;;;;;4986389;28;20202;-30
2022/11/25 12:48:57;;;;;;;10.67;2.60;;;12.80;99.90;;;;;;4985937;28;20242;-30
2022/11/25 12:51:39;;;;;;;8.30;2.27;;;12.80;99.90;;;;;;4984523;28;20781;-30
2022/11/25 12:54:44;;;;;;;9.90;2.90;;;12.80;99.90;;;;;;4984478;28;20228;-30
2022/11/25 12:57:33;;;;;;;9.70;2.60;;;12.80;99.90;;;;;;4986135;28;20693;-32
2022/11/25 13:00:41;;;;;;;9.87;2.63;;;12.80;99.90;;;;;;4975252;28;20546;-30
2022/11/25 13:03:34;;;;;;;8.00;2.10;;;12.90;99.90;;;;;;4986192;28;20209;-30
2022/11/25 13:06:18;;;;;;;12.53;3.03;;;12.90;99.90;;;;;;4975452;28;20218;-30
2022/11/25 13:09:27;;;;;;;7.83;2.23;;;12.90;99.90;;;;;;4986266;28;20202;-30
2022/11/25 13:12:04;;;;;;;8.83;2.73;;;12.90;99.90;;;;;;4976933;28;20230;-30
2022/11/25 13:14:50;;;;;;;11.83;2.73;;;12.90;99.90;;;;;;4989715;28;20284;-30
2022/11/25 13:17:19;;;;;;;13.77;3.07;;;12.90;99.90;;;;;;4989461;28;20190;-30
2022/11/25 13:20:25;;;;;;;10.20;2.60;;;12.90;99.90;;;;;;4987849;28;20293;-30
2022/11/25 13:23:06;;;;;;;11.23;3.07;;;12.90;99.90;;;;;;4989336;28;20796;-30
2022/11/25 13:25:38;;;;;;;12.07;3.77;;;12.90;99.90;;;;;;4988980;28;20209;-30
2022/11/25 13:28:31;;;;;;;10.73;3.03;;;12.90;99.90;;;;;;4989279;28;20759;-32
2022/11/25 13:31:24;;;;;;;10.50;3.53;;;12.90;99.90;;;;;;4989085;28;20288;-32